Ash Township, Michigan
Current Conditions -  °F | °C
As of 2:13 PM on Thursday 27 Nov 2014 (Local Time) from KTTF Reporting Station
Overcast Overcast  
Wind Chill: 24°   Ceiling: 3700
Heat Index: 34°   Visibility: 10mi
Dew Point: 25°   Wind: 16mph
Humidity: 70%   Direction: 270°W
Pressure: 30.15"   Gusts: NA
Location:  42.051°N, 83.409°W
Report Text: KTTF 271913Z AUTO 27014KT 10SM SCT028 OVC037 01/M04 A3015 RMK AO2
Loading
Personal Weather Stations






























Interactive Weather Map New forecast layout! Learn more

10-Day Weather Forecast

Advertisements
Track Severe Weather on mobile